createdAt,value
2018-12-20T00:06:22.576Z,0
2018-12-20T00:16:36.467Z,0
2018-12-20T00:26:51.322Z,0
2018-12-20T00:37:06.010Z,0
2018-12-20T00:47:20.954Z,0
2018-12-20T00:57:36.057Z,0
2018-12-20T01:07:51.076Z,0
2018-12-20T01:18:06.682Z,0
2018-12-20T01:28:21.995Z,0
2018-12-20T01:38:35.976Z,0
2018-12-20T01:48:49.857Z,0
2018-12-20T01:59:04.576Z,0
2018-12-20T02:09:19.702Z,0
2018-12-20T02:19:33.980Z,0
2018-12-20T02:29:48.583Z,0
2018-12-20T02:40:02.585Z,0
2018-12-20T02:50:16.330Z,0
2018-12-20T03:00:31.384Z,0
2018-12-20T03:10:46.311Z,0
2018-12-20T03:21:01.133Z,0
2018-12-20T03:31:15.409Z,0
2018-12-20T03:41:29.191Z,0
2018-12-20T03:51:43.038Z,0
2018-12-20T04:01:58.039Z,0
2018-12-20T04:12:13.419Z,0
2018-12-20T04:22:28.567Z,0
2018-12-20T04:32:43.120Z,0
2018-12-20T04:42:57.423Z,0
2018-12-20T04:53:12.204Z,0
2018-12-20T05:03:27.748Z,0
2018-12-20T05:13:41.708Z,0
2018-12-20T05:23:56.935Z,0
2018-12-20T05:34:11.980Z,0
2018-12-20T05:44:26.607Z,0
2018-12-20T05:54:41.636Z,0
2018-12-20T06:04:57.047Z,0
2018-12-20T06:15:11.642Z,0
2018-12-20T06:25:26.592Z,0
2018-12-20T06:35:42.059Z,0
2018-12-20T06:45:55.903Z,0
2018-12-20T06:56:10.394Z,0
2018-12-20T07:06:24.109Z,4
2018-12-20T07:16:37.890Z,16
2018-12-20T07:26:52.489Z,108
2018-12-20T07:37:07.701Z,212
2018-12-20T07:47:22.010Z,532
2018-12-20T07:57:37.693Z,1064
2018-12-20T08:07:52.349Z,900
2018-12-20T08:18:07.505Z,1712
2018-12-20T08:28:22.302Z,1552
2018-12-20T08:38:36.492Z,1532
2018-12-20T08:48:50.624Z,2008
2018-12-20T08:59:05.606Z,1376
2018-12-20T09:09:21.275Z,3288
2018-12-20T09:19:35.975Z,4108
2018-12-20T09:29:49.953Z,6384
2018-12-20T09:40:05.020Z,6928
2018-12-20T09:50:20.614Z,8380
2018-12-20T10:00:35.358Z,9352
2018-12-20T10:10:50.734Z,8324
2018-12-20T10:21:05.668Z,11232
2018-12-20T10:31:20.404Z,16864
2018-12-20T10:41:34.948Z,11228
2018-12-20T10:51:49.512Z,8404
2018-12-20T11:02:03.715Z,6208
2018-12-20T11:12:18.203Z,5328
2018-12-20T11:22:32.126Z,6784
2018-12-20T11:32:46.061Z,9716
2018-12-20T11:43:00.633Z,5572
2018-12-20T11:53:14.418Z,7012
2018-12-20T12:03:28.137Z,14996
2018-12-20T12:13:41.866Z,6424
2018-12-20T12:23:55.566Z,8056
2018-12-20T12:34:10.218Z,8148
2018-12-20T12:44:25.108Z,10900
2018-12-20T12:54:38.954Z,9052
2018-12-20T13:04:52.676Z,4864
2018-12-20T13:15:06.936Z,4116
2018-12-20T13:25:21.453Z,3536
2018-12-20T13:35:35.220Z,2208
2018-12-20T13:45:49.905Z,2088
2018-12-20T13:56:04.523Z,6332
2018-12-20T14:06:19.262Z,5572
2018-12-20T14:16:34.084Z,1540
2018-12-20T14:26:48.849Z,1656
2018-12-20T14:37:03.739Z,1500
2018-12-20T14:47:19.297Z,756
2018-12-20T14:57:33.749Z,788
2018-12-20T15:07:47.670Z,164
2018-12-20T15:18:02.740Z,96
2018-12-20T15:28:18.094Z,80
2018-12-20T15:38:32.349Z,20
2018-12-20T15:48:47.289Z,8
2018-12-20T15:59:01.606Z,0
2018-12-20T16:09:16.733Z,0
2018-12-20T16:19:32.129Z,0
2018-12-20T16:29:47.067Z,0
2018-12-20T16:40:02.537Z,0
2018-12-20T16:50:16.891Z,0
2018-12-20T17:00:31.688Z,0
2018-12-20T17:10:45.277Z,0
2018-12-20T17:21:00.199Z,0
2018-12-20T17:31:15.587Z,0
2018-12-20T17:41:30.859Z,0
2018-12-20T17:51:45.014Z,0
2018-12-20T18:01:59.364Z,0
2018-12-20T18:12:13.369Z,0
2018-12-20T18:22:28.021Z,0
2018-12-20T18:32:43.063Z,0
2018-12-20T18:42:57.893Z,0
2018-12-20T18:53:12.790Z,0
2018-12-20T19:03:27.395Z,0
2018-12-20T19:13:41.747Z,0
2018-12-20T19:23:56.766Z,0
2018-12-20T19:34:10.697Z,0
2018-12-20T19:44:24.557Z,0
2018-12-20T19:54:39.297Z,0
2018-12-20T20:04:53.300Z,0
2018-12-20T20:15:07.907Z,0
2018-12-20T20:25:21.937Z,0
2018-12-20T20:35:36.644Z,0
2018-12-20T20:45:51.102Z,0
2018-12-20T20:56:05.020Z,0
2018-12-20T21:06:19.919Z,0
2018-12-20T21:16:34.309Z,0
2018-12-20T21:26:48.649Z,0
2018-12-20T21:37:04.070Z,0
2018-12-20T21:47:18.422Z,0
2018-12-20T21:57:33.017Z,0
2018-12-20T22:07:47.142Z,0
2018-12-20T22:18:01.049Z,0
2018-12-20T22:28:16.658Z,0
2018-12-20T22:38:30.724Z,0
2018-12-20T22:48:44.493Z,0
2018-12-20T22:58:59.278Z,0
2018-12-20T23:09:13.335Z,0
2018-12-20T23:19:28.704Z,0
2018-12-20T23:29:43.704Z,0
2018-12-20T23:39:57.805Z,0
2018-12-20T23:50:13.095Z,0
